Reiles Acres, North Dakota
Current Conditions -  °F | °C
As of 7:53 AM on Saturday 25 Oct 2014 (Local Time) from KFAR Reporting Station
Clear Clear  
Wind Chill:   Ceiling: Unl
Heat Index:   Visibility: 10mi
Dew Point: -1°   Wind: 10mph
Humidity: 70%   Direction: 270°W
Pressure: 30.06"   Gusts: NA
Location:  46.9259°N, 96.8507°W
Report Text: KFAR 251253Z AUTO 27009KT 10SM CLR 04/M01 A3006 RMK AO2 SLP185 T00441006 TSNO $
Loading
Personal Weather Stations






























Interactive Weather Map
Tropical Storm Tracking
New forecast layout! Learn more

10-Day Weather Forecast

Advertisements
Track Severe Weather on mobile